Time;durP1;ratioP1;P1;durP2;ratioP2;P2;SDS_P1;SDS_P2;PMS_P1;PMS_P2;Temp;Humidity;BMP_temperature;BMP_pressure;BME280_temperature;BME280_humidity;BME280_pressure;Samples;Min_cycle;Max_cycle;Signal;HPM_P1;HPM_P2
2022/05/11 00:00:30;;;;;;;10.98;7.40;;;;;;;;;;5158754;27;20427;-39
2022/05/11 00:02:55;;;;;;;8.73;5.97;;;;;;;;;;5156360;27;20047;-37
2022/05/11 00:05:21;;;;;;;7.88;3.78;;;;;;;;;;5159607;27;20200;-40
2022/05/11 00:07:48;;;;;;;5.25;4.10;;;;;;;;;;5157819;27;20038;-40
2022/05/11 00:10:13;;;;;;;8.93;5.40;;;;;;;;;;5153065;27;20038;-38
2022/05/11 00:12:43;;;;;;;6.25;5.05;;;;;;;;;;5156447;27;20047;-39
2022/05/11 00:15:14;;;;;;;7.55;5.40;;;;;;;;;;5154115;27;20043;-38
2022/05/11 00:17:39;;;;;;;4.47;3.92;;;;;;;;;;5153857;27;20080;-39
2022/05/11 00:20:06;;;;;;;8.43;4.68;;;;;;;;;;5157330;27;20070;-41
2022/05/11 00:22:32;;;;;;;8.27;3.67;;;;;;;;;;5156538;27;20072;-38
2022/05/11 00:24:57;;;;;;;4.93;3.22;;;;;;;;;;5159516;27;20049;-39
2022/05/11 00:27:22;;;;;;;5.55;4.38;;;;;;;;;;5135288;27;20071;-41
2022/05/11 00:29:48;;;;;;;7.45;5.97;;;;;;;;;;5157427;27;20110;-38
2022/05/11 00:32:13;;;;;;;11.23;4.88;;;;;;;;;;5156080;27;20085;-38
2022/05/11 00:34:38;;;;;;;14.45;4.95;;;;;;;;;;5157011;27;20490;-39
2022/05/11 00:37:04;;;;;;;3.28;2.67;;;;;;;;;;5153932;27;20034;-37
2022/05/11 00:39:29;;;;;;;5.47;3.80;;;;;;;;;;5152911;27;20459;-40
2022/05/11 00:41:54;;;;;;;8.00;5.22;;;;;;;;;;5157655;27;20406;-41
2022/05/11 00:44:20;;;;;;;6.78;4.47;;;;;;;;;;5160901;27;20486;-38
2022/05/11 00:46:48;;;;;;;8.25;4.25;;;;;;;;;;5161024;27;20557;-38
2022/05/11 00:49:34;;;;;;;14.93;5.03;;;;;;;;;;5158119;27;20056;-40
2022/05/11 00:52:05;;;;;;;7.93;3.75;;;;;;;;;;5160854;27;20042;-39
2022/05/11 00:54:32;;;;;;;6.55;4.47;;;;;;;;;;5160765;27;20613;-38
2022/05/11 00:57:01;;;;;;;6.28;3.72;;;;;;;;;;5159718;27;20123;-38
2022/05/11 00:59:30;;;;;;;7.72;5.18;;;;;;;;;;5159198;27;20613;-38
2022/05/11 01:01:58;;;;;;;6.18;5.07;;;;;;;;;;5158790;27;20043;-39
2022/05/11 01:04:24;;;;;;;13.60;7.28;;;;;;;;;;5158445;27;20537;-39
2022/05/11 01:06:49;;;;;;;23.90;8.82;;;;;;;;;;5160263;27;20049;-41
2022/05/11 01:09:15;;;;;;;6.97;5.95;;;;;;;;;;5160218;27;20494;-40
2022/05/11 01:11:45;;;;;;;6.53;5.20;;;;;;;;;;5160437;27;20056;-38
2022/05/11 01:14:18;;;;;;;9.30;5.72;;;;;;;;;;5161371;27;20038;-44
2022/05/11 01:16:44;;;;;;;5.68;4.95;;;;;;;;;;5156567;27;20042;-39
2022/05/11 01:19:24;;;;;;;7.65;5.75;;;;;;;;;;5158871;27;20049;-40
2022/05/11 01:22:03;;;;;;;7.95;5.20;;;;;;;;;;5159485;27;20043;-39
2022/05/11 01:24:40;;;;;;;7.85;5.32;;;;;;;;;;5158838;27;20034;-40
2022/05/11 01:27:24;;;;;;;6.75;4.78;;;;;;;;;;5155572;27;20478;-40
2022/05/11 01:29:49;;;;;;;6.03;4.45;;;;;;;;;;5160069;27;20539;-38
2022/05/11 01:32:18;;;;;;;6.13;4.47;;;;;;;;;;5158135;27;20039;-38
2022/05/11 01:34:46;;;;;;;3.55;3.13;;;;;;;;;;5156982;27;20553;-39
2022/05/11 01:37:11;;;;;;;9.07;4.47;;;;;;;;;;5156593;27;20072;-38
2022/05/11 01:39:37;;;;;;;6.15;4.03;;;;;;;;;;5159599;27;20762;-41
2022/05/11 01:42:02;;;;;;;7.22;4.70;;;;;;;;;;5158549;27;20527;-40
2022/05/11 01:44:27;;;;;;;7.28;4.82;;;;;;;;;;5154765;27;20455;-45
2022/05/11 01:46:54;;;;;;;7.00;5.40;;;;;;;;;;5158428;27;20581;-37
2022/05/11 01:49:20;;;;;;;7.10;3.97;;;;;;;;;;5157929;27;20203;-40
2022/05/11 01:51:46;;;;;;;12.95;4.75;;;;;;;;;;5159142;27;20086;-41
2022/05/11 01:54:14;;;;;;;7.47;5.10;;;;;;;;;;5158248;27;20042;-43
2022/05/11 01:56:39;;;;;;;13.52;5.30;;;;;;;;;;5156838;27;20057;-38
2022/05/11 01:59:05;;;;;;;13.73;5.93;;;;;;;;;;5156992;27;20046;-39
2022/05/11 02:01:31;;;;;;;8.38;5.18;;;;;;;;;;5158080;27;20513;-41
2022/05/11 02:03:57;;;;;;;18.00;7.03;;;;;;;;;;5159369;27;20191;-40
2022/05/11 02:09:06;;;;;;;7.47;5.63;;;;;;;;;;5157716;27;20049;-39
2022/05/11 02:11:32;;;;;;;4.25;3.85;;;;;;;;;;5158985;27;20589;-39
2022/05/11 02:13:58;;;;;;;12.45;4.03;;;;;;;;;;5158430;27;20064;-41
2022/05/11 02:16:24;;;;;;;4.72;3.88;;;;;;;;;;5156404;27;20030;-40
2022/05/11 02:18:49;;;;;;;4.75;4.25;;;;;;;;;;5158323;27;20034;-37
2022/05/11 02:21:14;;;;;;;6.45;3.88;;;;;;;;;;5158029;27;20051;-37
2022/05/11 02:23:39;;;;;;;8.63;5.20;;;;;;;;;;5155850;27;20047;-37
2022/05/11 02:26:08;;;;;;;6.88;3.90;;;;;;;;;;5157455;27;20034;-37
2022/05/11 02:28:34;;;;;;;6.65;4.25;;;;;;;;;;5157220;27;20046;-38
2022/05/11 02:31:00;;;;;;;6.32;3.95;;;;;;;;;;5156126;27;20042;-39
2022/05/11 02:33:25;;;;;;;5.10;4.10;;;;;;;;;;5159274;27;20059;-39
2022/05/11 02:35:51;;;;;;;10.88;6.03;;;;;;;;;;5158881;27;20128;-38
2022/05/11 02:38:19;;;;;;;10.30;3.97;;;;;;;;;;5154941;27;20050;-39
2022/05/11 02:40:44;;;;;;;6.15;4.90;;;;;;;;;;5157324;27;20111;-37
2022/05/11 02:43:11;;;;;;;12.30;5.97;;;;;;;;;;5157095;27;20481;-38
2022/05/11 02:45:37;;;;;;;6.10;5.50;;;;;;;;;;5155848;27;20102;-37
2022/05/11 02:48:03;;;;;;;7.40;4.70;;;;;;;;;;5157943;27;20043;-38
2022/05/11 02:50:34;;;;;;;7.25;5.10;;;;;;;;;;5155757;27;20095;-38
2022/05/11 02:53:02;;;;;;;17.97;7.33;;;;;;;;;;5154246;27;20129;-38
2022/05/11 02:55:28;;;;;;;12.82;4.88;;;;;;;;;;5155184;27;20053;-40
2022/05/11 02:57:53;;;;;;;6.90;5.00;;;;;;;;;;5158271;27;20046;-42
2022/05/11 03:00:19;;;;;;;9.35;5.07;;;;;;;;;;5157518;27;20039;-42
2022/05/11 03:02:45;;;;;;;4.80;3.60;;;;;;;;;;5158741;27;20624;-38
2022/05/11 03:05:12;;;;;;;7.93;5.00;;;;;;;;;;5157390;27;20091;-38
2022/05/11 03:07:37;;;;;;;4.75;4.20;;;;;;;;;;5156162;27;20121;-38
2022/05/11 03:10:03;;;;;;;16.80;5.78;;;;;;;;;;5158339;27;20121;-38
2022/05/11 03:12:28;;;;;;;7.60;6.28;;;;;;;;;;5158976;27;20089;-38
2022/05/11 03:14:54;;;;;;;7.47;4.90;;;;;;;;;;5158500;27;20046;-38
2022/05/11 03:17:20;;;;;;;12.20;5.57;;;;;;;;;;5157921;27;20530;-39
2022/05/11 03:19:45;;;;;;;20.10;5.22;;;;;;;;;;5157519;27;20512;-38
2022/05/11 03:22:11;;;;;;;3.45;2.95;;;;;;;;;;5157147;27;20501;-38
2022/05/11 03:24:36;;;;;;;6.68;4.68;;;;;;;;;;5158523;27;20438;-37
2022/05/11 03:27:01;;;;;;;4.85;4.03;;;;;;;;;;5155760;27;20042;-37
2022/05/11 03:29:28;;;;;;;4.53;3.00;;;;;;;;;;5157433;27;20070;-38
2022/05/11 03:34:37;;;;;;;5.50;3.50;;;;;;;;;;5154413;27;20061;-40
2022/05/11 03:37:04;;;;;;;10.40;5.38;;;;;;;;;;5156972;27;20050;-43
2022/05/11 03:39:29;;;;;;;15.98;4.95;;;;;;;;;;5157019;27;20042;-39
2022/05/11 03:41:55;;;;;;;7.57;4.72;;;;;;;;;;5156311;27;20057;-38
2022/05/11 03:44:20;;;;;;;11.27;6.13;;;;;;;;;;5157882;27;20046;-38
2022/05/11 03:46:45;;;;;;;15.18;4.28;;;;;;;;;;5157419;27;20091;-38
2022/05/11 03:49:11;;;;;;;9.27;5.10;;;;;;;;;;5158300;27;20123;-38
2022/05/11 03:51:36;;;;;;;12.73;4.35;;;;;;;;;;5154795;27;20356;-39
2022/05/11 03:54:01;;;;;;;6.72;4.05;;;;;;;;;;5158927;27;20122;-38
2022/05/11 03:56:28;;;;;;;8.85;3.42;;;;;;;;;;5154290;27;20070;-39
2022/05/11 03:58:55;;;;;;;11.65;7.30;;;;;;;;;;5157307;27;20134;-41
2022/05/11 04:01:20;;;;;;;9.05;6.80;;;;;;;;;;5156860;27;20066;-39
2022/05/11 04:03:46;;;;;;;9.30;4.60;;;;;;;;;;5157173;27;20510;-38
2022/05/11 04:06:11;;;;;;;9.98;7.07;;;;;;;;;;5157367;27;20179;-39
2022/05/11 04:08:37;;;;;;;6.35;4.93;;;;;;;;;;5154758;27;20086;-41
2022/05/11 04:11:02;;;;;;;10.88;4.55;;;;;;;;;;5155241;27;20577;-38
2022/05/11 04:13:27;;;;;;;16.38;5.05;;;;;;;;;;5157017;27;20058;-38
2022/05/11 04:15:53;;;;;;;15.38;6.18;;;;;;;;;;5154347;27;20125;-41
2022/05/11 04:18:19;;;;;;;14.68;4.47;;;;;;;;;;5158989;27;20438;-38
2022/05/11 04:20:44;;;;;;;17.40;5.03;;;;;;;;;;5160886;27;20442;-39
2022/05/11 04:23:10;;;;;;;7.53;5.28;;;;;;;;;;5161913;27;20047;-39
2022/05/11 04:25:35;;;;;;;6.32;3.88;;;;;;;;;;5159677;27;20172;-38
2022/05/11 04:28:02;;;;;;;10.48;3.88;;;;;;;;;;5164875;27;20379;-45
2022/05/11 04:30:31;;;;;;;6.10;5.05;;;;;;;;;;5163721;27;20031;-44
2022/05/11 04:32:57;;;;;;;12.15;3.25;;;;;;;;;;5158219;27;20034;-41
2022/05/11 04:35:22;;;;;;;8.13;5.05;;;;;;;;;;5158986;27;20106;-39
2022/05/11 04:37:47;;;;;;;6.95;4.63;;;;;;;;;;5161616;27;20042;-38
2022/05/11 04:40:13;;;;;;;14.15;3.90;;;;;;;;;;5161197;27;20453;-40
2022/05/11 04:42:38;;;;;;;15.40;7.55;;;;;;;;;;5141412;27;20039;-39
2022/05/11 04:45:04;;;;;;;15.30;7.00;;;;;;;;;;5159635;27;20042;-43
2022/05/11 04:47:29;;;;;;;18.08;7.32;;;;;;;;;;5161541;27;20082;-40
2022/05/11 04:49:54;;;;;;;17.35;6.78;;;;;;;;;;5160784;27;20137;-41
2022/05/11 04:52:20;;;;;;;10.23;5.88;;;;;;;;;;5160849;27;20043;-38
2022/05/11 04:54:48;;;;;;;19.40;7.03;;;;;;;;;;5161894;27;20755;-38
2022/05/11 04:57:13;;;;;;;10.20;5.05;;;;;;;;;;5159876;27;20046;-39
2022/05/11 04:59:40;;;;;;;12.77;7.60;;;;;;;;;;5158246;27;20571;-39
2022/05/11 05:02:06;;;;;;;17.00;8.73;;;;;;;;;;5161230;27;20050;-40
2022/05/11 05:04:31;;;;;;;9.50;7.28;;;;;;;;;;5160797;27;20095;-40
2022/05/11 05:06:57;;;;;;;5.72;4.80;;;;;;;;;;5158316;27;20458;-42
2022/05/11 05:09:22;;;;;;;12.75;5.75;;;;;;;;;;5162204;27;20031;-39
2022/05/11 05:11:49;;;;;;;16.95;4.95;;;;;;;;;;5158442;27;20147;-40
2022/05/11 05:14:14;;;;;;;9.25;7.22;;;;;;;;;;5154906;27;20204;-39
2022/05/11 05:16:39;;;;;;;12.40;6.07;;;;;;;;;;5156880;27;20563;-39
2022/05/11 05:19:05;;;;;;;8.02;4.63;;;;;;;;;;5158430;27;20042;-38
2022/05/11 05:21:31;;;;;;;6.63;4.13;;;;;;;;;;5158271;27;20538;-40
2022/05/11 05:23:56;;;;;;;16.30;6.28;;;;;;;;;;5157590;27;20486;-41
2022/05/11 05:26:22;;;;;;;7.72;4.68;;;;;;;;;;5158045;27;20038;-40
2022/05/11 05:31:31;;;;;;;12.90;7.20;;;;;;;;;;5154365;27;20077;-45
2022/05/11 05:34:00;;;;;;;5.70;4.70;;;;;;;;;;5157192;27;20070;-40
2022/05/11 05:36:36;;;;;;;5.45;3.78;;;;;;;;;;5158985;27;20043;-42
2022/05/11 05:39:02;;;;;;;7.70;5.30;;;;;;;;;;5159634;27;20047;-43
2022/05/11 05:41:28;;;;;;;8.20;6.82;;;;;;;;;;5160460;27;20034;-38
2022/05/11 05:43:54;;;;;;;5.65;5.03;;;;;;;;;;5159662;27;20061;-39
2022/05/11 05:46:20;;;;;;;8.70;5.93;;;;;;;;;;5160204;27;20456;-39
2022/05/11 05:48:45;;;;;;;12.85;6.15;;;;;;;;;;5158778;27;20035;-40
2022/05/11 05:51:12;;;;;;;14.65;5.75;;;;;;;;;;5157736;27;20507;-37
2022/05/11 05:53:39;;;;;;;12.93;7.93;;;;;;;;;;5158877;27;20371;-39
2022/05/11 05:56:05;;;;;;;15.63;7.97;;;;;;;;;;5156648;27;20054;-38
2022/05/11 05:58:30;;;;;;;27.27;7.18;;;;;;;;;;5159445;27;20095;-38
2022/05/11 06:00:56;;;;;;;70.43;10.90;;;;;;;;;;5156479;27;20047;-42
2022/05/11 06:03:22;;;;;;;31.50;7.18;;;;;;;;;;5159452;27;20050;-42
2022/05/11 06:05:47;;;;;;;11.40;5.28;;;;;;;;;;5158007;27;20130;-44
2022/05/11 06:08:15;;;;;;;5.57;4.68;;;;;;;;;;5158294;27;20126;-39
2022/05/11 06:10:41;;;;;;;7.63;6.13;;;;;;;;;;5159247;27;20498;-41
2022/05/11 06:13:07;;;;;;;12.88;5.20;;;;;;;;;;5157346;27;20138;-39
2022/05/11 06:15:33;;;;;;;12.68;7.80;;;;;;;;;;5159297;27;20461;-42
2022/05/11 06:17:58;;;;;;;26.05;8.40;;;;;;;;;;5156735;27;20050;-40
2022/05/11 06:20:23;;;;;;;9.93;7.00;;;;;;;;;;5159949;27;20431;-44
2022/05/11 06:22:50;;;;;;;9.77;7.65;;;;;;;;;;5159848;27;20049;-40
2022/05/11 06:25:18;;;;;;;8.18;6.88;;;;;;;;;;5156796;27;20030;-40
2022/05/11 06:27:43;;;;;;;16.40;7.22;;;;;;;;;;5159150;27;20124;-40
2022/05/11 06:30:09;;;;;;;19.38;7.97;;;;;;;;;;5156665;27;20060;-39
2022/05/11 06:32:34;;;;;;;24.63;10.52;;;;;;;;;;5161267;27;20513;-40
2022/05/11 06:35:00;;;;;;;8.45;6.60;;;;;;;;;;5158626;27;20137;-43
2022/05/11 06:37:25;;;;;;;5.53;4.80;;;;;;;;;;5158308;27;20038;-39
2022/05/11 06:39:51;;;;;;;16.40;9.55;;;;;;;;;;5156460;27;20107;-41
2022/05/11 06:42:17;;;;;;;11.23;6.38;;;;;;;;;;5156106;27;20506;-41
2022/05/11 06:44:42;;;;;;;9.15;7.18;;;;;;;;;;5136048;27;20464;-46
2022/05/11 06:47:08;;;;;;;11.73;7.35;;;;;;;;;;5158934;27;20034;-41
2022/05/11 06:49:33;;;;;;;12.40;10.32;;;;;;;;;;5156411;27;20045;-43
2022/05/11 06:51:59;;;;;;;22.55;17.00;;;;;;;;;;5154093;27;20058;-45
2022/05/11 06:59:53;;;;;;;22.20;15.48;;;;;;;;;;5156020;27;20060;-44
2022/05/11 07:02:19;;;;;;;22.35;15.82;;;;;;;;;;5157601;27;20050;-49
2022/05/11 07:04:44;;;;;;;15.27;13.73;;;;;;;;;;5161382;27;20099;-53
2022/05/11 07:07:10;;;;;;;18.38;13.48;;;;;;;;;;5157822;27;20140;-50
2022/05/11 07:09:35;;;;;;;17.73;11.00;;;;;;;;;;5156356;27;20067;-52
2022/05/11 07:14:45;;;;;;;16.52;12.65;;;;;;;;;;5154152;27;20042;-46
2022/05/11 07:17:11;;;;;;;33.47;16.38;;;;;;;;;;5155962;27;20074;-54
2022/05/11 07:19:40;;;;;;;10.02;9.05;;;;;;;;;;5158597;27;20493;-55
2022/05/11 07:22:06;;;;;;;19.35;10.65;;;;;;;;;;5157685;27;20433;-52
2022/05/11 07:24:31;;;;;;;20.05;12.48;;;;;;;;;;5158962;27;20038;-49
2022/05/11 07:26:56;;;;;;;88.80;20.65;;;;;;;;;;5157368;27;20042;-50
2022/05/11 07:29:22;;;;;;;23.13;12.60;;;;;;;;;;5136905;27;20118;-48
2022/05/11 07:31:48;;;;;;;27.55;7.97;;;;;;;;;;5159548;27;20042;-52
2022/05/11 07:34:13;;;;;;;18.80;8.20;;;;;;;;;;5156319;27;21308;-50
2022/05/11 07:36:38;;;;;;;23.52;8.52;;;;;;;;;;5157954;27;20090;-49
2022/05/11 07:39:04;;;;;;;13.20;8.98;;;;;;;;;;5156426;27;20602;-47
2022/05/11 07:41:29;;;;;;;14.80;9.05;;;;;;;;;;5160279;27;20050;-47
2022/05/11 07:43:55;;;;;;;8.50;6.28;;;;;;;;;;5158926;27;20046;-47
2022/05/11 07:46:21;;;;;;;19.55;8.57;;;;;;;;;;5158990;27;20426;-50
2022/05/11 07:48:47;;;;;;;25.40;5.32;;;;;;;;;;5156610;27;20050;-50
2022/05/11 07:51:13;;;;;;;11.68;5.75;;;;;;;;;;5158112;27;20117;-51
2022/05/11 07:53:38;;;;;;;7.63;3.80;;;;;;;;;;5157047;27;20158;-44
2022/05/11 08:01:31;;;;;;;26.10;6.25;;;;;;;;;;5155438;27;20627;-51
2022/05/11 08:03:57;;;;;;;11.82;4.63;;;;;;;;;;5155850;27;20047;-51
2022/05/11 08:06:22;;;;;;;5.07;3.72;;;;;;;;;;5150717;27;20174;-51
2022/05/11 08:08:47;;;;;;;10.98;5.65;;;;;;;;;;5155266;27;20515;-49
2022/05/11 08:11:13;;;;;;;20.35;5.78;;;;;;;;;;5154426;27;20046;-50
2022/05/11 08:13:39;;;;;;;11.48;4.00;;;;;;;;;;5135943;27;20430;-49
2022/05/11 08:16:04;;;;;;;6.22;4.20;;;;;;;;;;5136614;27;20055;-51
2022/05/11 08:18:30;;;;;;;11.00;4.65;;;;;;;;;;5133620;27;20107;-50
2022/05/11 08:20:55;;;;;;;3.35;2.78;;;;;;;;;;5136584;27;20072;-51
2022/05/11 08:23:21;;;;;;;7.30;3.47;;;;;;;;;;5134742;27;20039;-52
2022/05/11 08:25:47;;;;;;;11.68;4.25;;;;;;;;;;5132510;27;20051;-50
2022/05/11 08:28:17;;;;;;;4.25;3.50;;;;;;;;;;5136089;27;20039;-49
2022/05/11 08:33:28;;;;;;;6.63;4.22;;;;;;;;;;5140929;27;20078;-50
2022/05/11 08:35:58;;;;;;;8.38;3.65;;;;;;;;;;5120601;27;20087;-52
2022/05/11 08:38:25;;;;;;;3.15;2.30;;;;;;;;;;5139176;27;20057;-49
2022/05/11 08:40:59;;;;;;;16.35;3.63;;;;;;;;;;5140267;27;20031;-53
2022/05/11 08:43:31;;;;;;;23.83;6.15;;;;;;;;;;5135882;27;20107;-51
2022/05/11 08:46:08;;;;;;;4.28;2.85;;;;;;;;;;5140931;27;20047;-49
2022/05/11 08:48:33;;;;;;;4.55;2.40;;;;;;;;;;5138625;27;20117;-52
2022/05/11 08:50:59;;;;;;;9.50;2.97;;;;;;;;;;5135068;27;21382;-53
2022/05/11 08:53:35;;;;;;;6.00;2.70;;;;;;;;;;5134952;27;20054;-53
2022/05/11 08:56:04;;;;;;;12.13;9.25;;;;;;;;;;5136666;27;20099;-51
2022/05/11 08:58:48;;;;;;;9.70;4.00;;;;;;;;;;5134886;27;20134;-53
2022/05/11 09:01:17;;;;;;;3.60;1.85;;;;;;;;;;5132965;27;20079;-50
2022/05/11 09:03:44;;;;;;;6.43;3.50;;;;;;;;;;5136466;27;20111;-53
2022/05/11 09:06:15;;;;;;;4.32;2.95;;;;;;;;;;5138928;27;20042;-53
2022/05/11 09:08:40;;;;;;;51.63;12.38;;;;;;;;;;5137172;27;20054;-51
2022/05/11 09:11:07;;;;;;;11.05;5.35;;;;;;;;;;5139191;27;20134;-53
2022/05/11 09:13:34;;;;;;;8.98;6.10;;;;;;;;;;5138144;27;20054;-53
2022/05/11 09:16:01;;;;;;;6.25;3.78;;;;;;;;;;5136134;27;20092;-54
2022/05/11 09:18:39;;;;;;;10.43;2.70;;;;;;;;;;5138270;27;20122;-54
2022/05/11 09:21:13;;;;;;;8.43;2.28;;;;;;;;;;5141553;27;20051;-53
2022/05/11 09:23:40;;;;;;;5.90;3.30;;;;;;;;;;5136407;27;20043;-53
2022/05/11 09:26:10;;;;;;;6.85;2.53;;;;;;;;;;5139938;27;20231;-55
2022/05/11 09:28:40;;;;;;;8.73;4.20;;;;;;;;;;5137132;27;20124;-54
2022/05/11 09:31:13;;;;;;;3.75;2.28;;;;;;;;;;5136503;27;20050;-54
2022/05/11 09:33:39;;;;;;;3.33;2.08;;;;;;;;;;5137967;27;20495;-52
2022/05/11 09:36:05;;;;;;;2.58;1.52;;;;;;;;;;5137717;27;20110;-52
2022/05/11 09:38:35;;;;;;;9.20;3.50;;;;;;;;;;5138264;27;20050;-53
2022/05/11 09:41:01;;;;;;;2.40;1.50;;;;;;;;;;5138419;27;20582;-54
2022/05/11 09:43:26;;;;;;;4.85;2.47;;;;;;;;;;5137782;27;20058;-53
2022/05/11 09:45:51;;;;;;;9.85;2.35;;;;;;;;;;5140100;27;20050;-50
2022/05/11 09:48:22;;;;;;;4.57;2.28;;;;;;;;;;5139871;27;20046;-50
2022/05/11 09:50:52;;;;;;;3.35;1.83;;;;;;;;;;5134987;27;20051;-49
2022/05/11 09:53:21;;;;;;;4.85;2.60;;;;;;;;;;5138435;27;20051;-50
2022/05/11 09:55:48;;;;;;;16.58;5.82;;;;;;;;;;5139512;27;20038;-51
2022/05/11 09:58:25;;;;;;;7.68;3.58;;;;;;;;;;5134876;27;20482;-49
2022/05/11 10:00:50;;;;;;;5.22;2.30;;;;;;;;;;5136488;27;20054;-50
2022/05/11 10:03:20;;;;;;;8.30;3.28;;;;;;;;;;5137648;27;20054;-52
2022/05/11 10:05:49;;;;;;;5.70;2.72;;;;;;;;;;5139910;27;20039;-53
2022/05/11 10:08:18;;;;;;;2.53;1.98;;;;;;;;;;5136945;27;20042;-52
2022/05/11 10:10:43;;;;;;;3.72;2.58;;;;;;;;;;5141654;27;20462;-53
2022/05/11 10:13:19;;;;;;;17.35;3.63;;;;;;;;;;5137088;27;20071;-50
2022/05/11 10:23:59;;;;;;;4.07;1.80;;;;;;;;;;5138033;27;20099;-52
2022/05/11 10:26:30;;;;;;;5.88;2.95;;;;;;;;;;5141308;27;20149;-53
2022/05/11 10:29:00;;;;;;;14.68;3.05;;;;;;;;;;5140158;27;20043;-52
2022/05/11 10:31:32;;;;;;;17.85;3.33;;;;;;;;;;5136041;27;20046;-53
2022/05/11 10:34:16;;;;;;;7.85;1.85;;;;;;;;;;5139265;27;20555;-49
2022/05/11 10:36:57;;;;;;;5.70;1.90;;;;;;;;;;5138989;27;20631;-50
2022/05/11 10:39:28;;;;;;;6.15;2.40;;;;;;;;;;5138063;27;20533;-50
2022/05/11 10:42:12;;;;;;;2.88;1.45;;;;;;;;;;5142132;27;20035;-48
2022/05/11 10:44:52;;;;;;;9.02;2.75;;;;;;;;;;5140536;27;20050;-47
2022/05/11 10:47:23;;;;;;;4.60;2.15;;;;;;;;;;5124746;27;20046;-53
2022/05/11 10:49:55;;;;;;;10.23;2.85;;;;;;;;;;5138970;27;20031;-51
2022/05/11 10:52:41;;;;;;;3.15;1.38;;;;;;;;;;5138902;27;20074;-50
2022/05/11 10:55:09;;;;;;;2.63;1.05;;;;;;;;;;5092459;27;20550;-50
2022/05/11 10:57:43;;;;;;;2.47;1.65;;;;;;;;;;5140240;27;20049;-49
2022/05/11 11:00:09;;;;;;;4.53;2.58;;;;;;;;;;5142434;27;20038;-54
2022/05/11 11:02:43;;;;;;;3.42;2.15;;;;;;;;;;5138446;27;20522;-52
2022/05/11 11:05:21;;;;;;;3.83;1.70;;;;;;;;;;5139309;27;20476;-51
2022/05/11 11:07:58;;;;;;;5.50;2.80;;;;;;;;;;5138722;27;20639;-53
2022/05/11 11:10:29;;;;;;;2.08;1.38;;;;;;;;;;5135753;27;20043;-50
2022/05/11 11:13:03;;;;;;;3.03;1.52;;;;;;;;;;5138195;27;20061;-48
2022/05/11 11:15:32;;;;;;;2.15;1.25;;;;;;;;;;5137511;27;20031;-51
2022/05/11 11:17:58;;;;;;;16.13;2.92;;;;;;;;;;5135726;27;20059;-53
2022/05/11 11:20:24;;;;;;;8.48;2.17;;;;;;;;;;5138945;27;20023;-50
2022/05/11 11:23:07;;;;;;;14.00;2.38;;;;;;;;;;5135312;27;20498;-48
2022/05/11 11:25:41;;;;;;;6.82;4.05;;;;;;;;;;5135854;27;20092;-52
2022/05/11 11:28:09;;;;;;;3.92;2.38;;;;;;;;;;5139277;27;20099;-50
2022/05/11 11:30:36;;;;;;;6.80;1.45;;;;;;;;;;5139744;27;20039;-51
2022/05/11 11:33:11;;;;;;;3.47;1.60;;;;;;;;;;5143703;27;20042;-54
2022/05/11 11:35:40;;;;;;;3.72;1.65;;;;;;;;;;5137604;27;20437;-51
2022/05/11 11:38:06;;;;;;;7.18;2.38;;;;;;;;;;5135352;27;20051;-47
2022/05/11 11:40:32;;;;;;;1.20;0.70;;;;;;;;;;5139418;27;20540;-46
2022/05/11 11:42:58;;;;;;;14.63;2.55;;;;;;;;;;5139595;27;20138;-49
2022/05/11 11:45:26;;;;;;;4.78;1.05;;;;;;;;;;5140807;27;20110;-49
2022/05/11 11:48:03;;;;;;;3.88;1.63;;;;;;;;;;5138036;27;20569;-49
2022/05/11 11:50:49;;;;;;;4.10;2.25;;;;;;;;;;5137689;27;20039;-48
2022/05/11 11:53:21;;;;;;;2.35;1.55;;;;;;;;;;5134438;27;20047;-45
2022/05/11 11:55:47;;;;;;;6.18;1.50;;;;;;;;;;5137387;27;20065;-46
2022/05/11 11:58:29;;;;;;;5.95;2.03;;;;;;;;;;5135183;27;20047;-54
2022/05/11 12:00:54;;;;;;;11.55;2.20;;;;;;;;;;5139388;27;20043;-51
2022/05/11 12:03:24;;;;;;;7.88;2.20;;;;;;;;;;5138462;27;20068;-53
2022/05/11 12:05:54;;;;;;;5.03;1.98;;;;;;;;;;5136357;27;20542;-50
2022/05/11 12:16:44;;;;;;;4.30;1.20;;;;;;;;;;5136152;27;20042;-52
2022/05/11 12:19:10;;;;;;;7.60;2.72;;;;;;;;;;5140871;27;20134;-52
2022/05/11 12:21:36;;;;;;;9.75;1.83;;;;;;;;;;5135942;27;20043;-53
2022/05/11 12:24:04;;;;;;;9.75;2.17;;;;;;;;;;5140613;27;20071;-53
2022/05/11 12:26:31;;;;;;;14.40;1.73;;;;;;;;;;5137575;27;20039;-49
2022/05/11 12:31:54;;;;;;;3.08;2.05;;;;;;;;;;5136350;27;20124;-51
2022/05/11 12:34:23;;;;;;;4.30;2.40;;;;;;;;;;5138821;27;20146;-53
2022/05/11 12:36:51;;;;;;;5.75;1.48;;;;;;;;;;5137837;27;20042;-50
2022/05/11 12:39:27;;;;;;;4.15;2.20;;;;;;;;;;5136087;27;20126;-52
2022/05/11 12:41:53;;;;;;;7.28;2.60;;;;;;;;;;5137940;27;20042;-53
2022/05/11 12:44:25;;;;;;;2.13;1.48;;;;;;;;;;5138969;27;20042;-52
2022/05/11 12:46:50;;;;;;;1.85;1.17;;;;;;;;;;5140749;27;20080;-49
2022/05/11 12:49:16;;;;;;;5.30;3.45;;;;;;;;;;5141233;27;20050;-52
2022/05/11 12:51:43;;;;;;;3.75;2.35;;;;;;;;;;5139142;27;20497;-53
2022/05/11 12:54:16;;;;;;;3.55;1.63;;;;;;;;;;5140900;27;20458;-50
2022/05/11 12:56:43;;;;;;;6.25;2.05;;;;;;;;;;5141305;27;20110;-52
2022/05/11 12:59:21;;;;;;;10.02;3.33;;;;;;;;;;5140517;27;20392;-50
2022/05/11 13:01:47;;;;;;;3.85;2.28;;;;;;;;;;5129177;27;20130;-51
2022/05/11 13:04:16;;;;;;;2.28;1.33;;;;;;;;;;5142484;27;20125;-50
2022/05/11 13:06:44;;;;;;;4.30;2.10;;;;;;;;;;5139779;27;20023;-49
2022/05/11 13:09:15;;;;;;;3.63;1.98;;;;;;;;;;5142571;27;20053;-48
2022/05/11 13:11:41;;;;;;;4.28;1.83;;;;;;;;;;5137264;27;20045;-52
2022/05/11 13:14:20;;;;;;;1.35;1.10;;;;;;;;;;5141930;27;20042;-50
2022/05/11 13:16:56;;;;;;;2.33;1.35;;;;;;;;;;5140779;27;20051;-53
2022/05/11 13:19:27;;;;;;;3.20;1.20;;;;;;;;;;5141803;27;20418;-54
2022/05/11 13:21:53;;;;;;;2.67;1.90;;;;;;;;;;5141026;27;20049;-54
2022/05/11 13:24:37;;;;;;;1.60;1.40;;;;;;;;;;5142817;27;20089;-55
2022/05/11 13:27:22;;;;;;;9.13;2.80;;;;;;;;;;5139407;27;20047;-55
2022/05/11 13:29:48;;;;;;;2.90;1.52;;;;;;;;;;5140579;27;20030;-53
2022/05/11 13:32:23;;;;;;;1.42;1.15;;;;;;;;;;5143641;27;20506;-54
2022/05/11 13:34:48;;;;;;;3.67;2.15;;;;;;;;;;5142009;27;20051;-53
2022/05/11 13:37:33;;;;;;;3.33;1.63;;;;;;;;;;5141990;27;20564;-55
2022/05/11 13:39:59;;;;;;;3.40;2.05;;;;;;;;;;5139340;27;20480;-53
2022/05/11 13:42:28;;;;;;;13.95;2.80;;;;;;;;;;5137741;27;20126;-54
2022/05/11 13:44:59;;;;;;;13.40;3.17;;;;;;;;;;5139533;27;20055;-55
2022/05/11 13:50:27;;;;;;;9.23;3.53;;;;;;;;;;5138002;27;20049;-54
2022/05/11 13:52:53;;;;;;;10.32;3.95;;;;;;;;;;5139050;27;20121;-57
2022/05/11 13:55:27;;;;;;;7.80;3.58;;;;;;;;;;5140642;27;20062;-54
2022/05/11 13:57:53;;;;;;;7.85;2.75;;;;;;;;;;5141291;27;20077;-56
2022/05/11 14:00:21;;;;;;;6.70;2.15;;;;;;;;;;5123847;27;20047;-54
2022/05/11 14:02:54;;;;;;;19.48;7.47;;;;;;;;;;5139553;27;20064;-54
2022/05/11 14:05:19;;;;;;;13.55;4.78;;;;;;;;;;5139088;27;20039;-56
2022/05/11 14:07:44;;;;;;;7.90;3.10;;;;;;;;;;5135526;27;20035;-56
2022/05/11 14:10:10;;;;;;;5.78;3.72;;;;;;;;;;5141310;27;20035;-55
2022/05/11 14:12:35;;;;;;;3.50;1.95;;;;;;;;;;5140645;27;20447;-54
2022/05/11 14:15:03;;;;;;;10.90;2.55;;;;;;;;;;5140701;27;20053;-54
2022/05/11 14:17:29;;;;;;;3.00;1.35;;;;;;;;;;5138978;27;20529;-54
2022/05/11 14:19:56;;;;;;;6.90;2.42;;;;;;;;;;5135811;27;20042;-55
2022/05/11 14:22:21;;;;;;;1.05;0.93;;;;;;;;;;5137459;27;20044;-56
2022/05/11 14:24:47;;;;;;;2.88;1.98;;;;;;;;;;5138746;27;20029;-56
2022/05/11 14:27:12;;;;;;;5.38;2.67;;;;;;;;;;5138882;27;20034;-55
2022/05/11 14:29:38;;;;;;;7.90;2.38;;;;;;;;;;5140869;27;20065;-53
2022/05/11 14:32:07;;;;;;;1.98;1.20;;;;;;;;;;5140988;27;20513;-54
2022/05/11 14:34:33;;;;;;;4.72;3.70;;;;;;;;;;5141464;27;20512;-55
2022/05/11 14:36:58;;;;;;;1.85;1.45;;;;;;;;;;5138628;27;20046;-54
2022/05/11 14:39:27;;;;;;;3.10;1.80;;;;;;;;;;5139148;27;20039;-51
2022/05/11 14:41:53;;;;;;;11.75;3.17;;;;;;;;;;5139555;27;20054;-56
2022/05/11 14:44:20;;;;;;;9.45;3.10;;;;;;;;;;5134535;27;20051;-54
2022/05/11 14:46:45;;;;;;;14.55;4.00;;;;;;;;;;5136170;27;20039;-56
2022/05/11 14:49:10;;;;;;;2.75;1.88;;;;;;;;;;5138613;27;20416;-55
2022/05/11 14:51:41;;;;;;;4.55;2.90;;;;;;;;;;5141366;27;20046;-55
2022/05/11 14:54:10;;;;;;;3.85;2.17;;;;;;;;;;5139453;27;20966;-54
2022/05/11 14:56:36;;;;;;;2.83;1.88;;;;;;;;;;5139438;27;20509;-53
2022/05/11 15:01:56;;;;;;;3.17;1.55;;;;;;;;;;5138520;27;20070;-55
2022/05/11 15:04:42;;;;;;;6.35;2.42;;;;;;;;;;5138418;27;20523;-56
2022/05/11 15:07:11;;;;;;;4.95;2.10;;;;;;;;;;5141938;27;20043;-55
2022/05/11 15:09:36;;;;;;;2.40;1.27;;;;;;;;;;5141547;27;20058;-53
2022/05/11 15:14:46;;;;;;;7.60;2.05;;;;;;;;;;5142286;27;20050;-51
2022/05/11 15:17:31;;;;;;;1.65;1.17;;;;;;;;;;5140025;27;20039;-53
2022/05/11 15:19:59;;;;;;;5.00;4.25;;;;;;;;;;5134783;27;20035;-53
2022/05/11 15:22:25;;;;;;;0.90;0.60;;;;;;;;;;5135515;27;20133;-51
2022/05/11 15:24:50;;;;;;;18.55;4.60;;;;;;;;;;5138070;27;20207;-51
2022/05/11 15:27:15;;;;;;;6.50;1.30;;;;;;;;;;5139073;27;20141;-51
2022/05/11 15:29:40;;;;;;;15.10;3.53;;;;;;;;;;5140301;27;20122;-52
2022/05/11 15:32:08;;;;;;;6.00;2.50;;;;;;;;;;5137596;27;20050;-52
2022/05/11 15:34:35;;;;;;;6.63;3.25;;;;;;;;;;5138759;27;20026;-52